createdAt,value
2019-05-12T00:04:12.000Z,16.02
2019-05-12T00:06:43.052Z,17.95
2019-05-12T00:09:13.884Z,18.67
2019-05-12T00:11:44.754Z,19.23
2019-05-12T00:14:17.815Z,20.85
2019-05-12T00:16:49.114Z,19.50
2019-05-12T00:19:20.236Z,20.82
2019-05-12T00:21:51.114Z,19.45
2019-05-12T00:24:21.824Z,20.15
2019-05-12T00:26:53.917Z,18.37
2019-05-12T00:29:24.955Z,19.12
2019-05-12T00:31:57.921Z,20.02
2019-05-12T00:34:28.849Z,19.67
2019-05-12T00:37:00.083Z,20.10
2019-05-12T00:39:30.801Z,18.73
2019-05-12T00:42:01.763Z,20.62
2019-05-12T00:44:32.652Z,19.95
2019-05-12T00:47:03.531Z,18.60
2019-05-12T00:49:34.379Z,18.77
2019-05-12T00:52:05.311Z,17.95
2019-05-12T00:54:37.562Z,16.97
2019-05-12T00:57:08.336Z,17.80
2019-05-12T00:59:40.032Z,19.05
2019-05-12T01:02:10.744Z,18.20
2019-05-12T01:04:41.514Z,19.67
2019-05-12T01:07:12.343Z,17.85
2019-05-12T01:09:43.137Z,20.25
2019-05-12T01:12:14.160Z,19.90
2019-05-12T01:14:44.767Z,18.95
2019-05-12T01:17:17.249Z,19.57
2019-05-12T01:19:48.585Z,20.43
2019-05-12T01:22:19.479Z,19.10
2019-05-12T01:24:50.191Z,19.37
2019-05-12T01:27:21.162Z,20.23
2019-05-12T01:29:51.978Z,18.92
2019-05-12T01:32:24.191Z,17.52
2019-05-12T01:34:54.962Z,18.27
2019-05-12T01:37:27.785Z,18.50
2019-05-12T01:40:00.114Z,21.27
2019-05-12T01:42:30.157Z,19.67
2019-05-12T01:45:00.991Z,17.60
2019-05-12T01:47:31.585Z,18.35
2019-05-12T01:50:02.521Z,16.97
2019-05-12T01:52:33.331Z,16.93
2019-05-12T01:55:04.199Z,16.20
2019-05-12T01:57:35.267Z,16.17
2019-05-12T02:00:08.064Z,16.48
2019-05-12T02:02:39.179Z,16.30
2019-05-12T02:05:10.489Z,17.05
2019-05-12T02:07:42.747Z,16.97
2019-05-12T02:10:13.945Z,17.92
2019-05-12T02:12:44.760Z,16.42
2019-05-12T02:15:18.356Z,15.70
2019-05-12T02:17:49.412Z,15.28
2019-05-12T02:20:21.356Z,15.68
2019-05-12T02:22:52.073Z,14.68
2019-05-12T02:25:23.052Z,13.98
2019-05-12T02:27:53.820Z,14.25
2019-05-12T02:30:25.039Z,14.55
2019-05-12T02:32:59.124Z,14.65
2019-05-12T02:35:28.148Z,14.75
2019-05-12T02:37:59.017Z,14.13
2019-05-12T02:40:29.908Z,13.48
2019-05-12T02:43:00.825Z,14.33
2019-05-12T02:45:31.575Z,14.90
2019-05-12T02:48:05.039Z,14.60
2019-05-12T02:50:37.335Z,15.68
2019-05-12T02:53:08.722Z,14.98
2019-05-12T02:55:40.229Z,15.20
2019-05-12T02:58:15.196Z,14.23
2019-05-12T03:00:46.831Z,14.53
2019-05-12T03:03:20.210Z,14.05
2019-05-12T03:05:54.867Z,14.30
2019-05-12T03:08:26.090Z,14.80
2019-05-12T03:10:56.992Z,13.80
2019-05-12T03:13:27.943Z,14.95
2019-05-12T03:15:58.984Z,14.68
2019-05-12T03:18:29.731Z,13.80
2019-05-12T03:21:00.504Z,14.13
2019-05-12T03:23:31.215Z,14.18
2019-05-12T03:26:04.922Z,12.40
2019-05-12T03:28:35.565Z,13.53
2019-05-12T03:31:08.129Z,13.90
2019-05-12T03:33:43.546Z,13.20
2019-05-12T03:36:16.860Z,13.20
2019-05-12T03:38:44.804Z,13.30
2019-05-12T03:41:15.627Z,14.00
2019-05-12T03:43:46.616Z,14.03
2019-05-12T03:46:17.368Z,13.13
2019-05-12T03:48:48.181Z,12.68
2019-05-12T03:51:19.425Z,13.40
2019-05-12T03:53:50.331Z,12.80
2019-05-12T03:56:21.167Z,13.72
2019-05-12T03:58:54.087Z,12.93
2019-05-12T04:01:25.519Z,13.28
2019-05-12T04:03:56.311Z,12.55
2019-05-12T04:06:26.966Z,12.30
2019-05-12T04:08:59.952Z,13.00
2019-05-12T04:11:29.863Z,12.95
2019-05-12T04:14:00.679Z,12.88
2019-05-12T04:16:31.371Z,13.05
2019-05-12T04:19:05.028Z,13.20
2019-05-12T04:21:35.107Z,12.60
2019-05-12T04:24:06.530Z,13.53
2019-05-12T04:26:37.369Z,13.13
2019-05-12T04:29:08.171Z,13.55
2019-05-12T04:31:39.085Z,13.30
2019-05-12T04:34:14.286Z,12.95
2019-05-12T04:36:44.616Z,13.40
2019-05-12T04:39:14.814Z,12.85
2019-05-12T04:41:45.971Z,13.22
2019-05-12T04:44:16.951Z,13.70
2019-05-12T04:46:47.619Z,13.43
2019-05-12T04:49:18.623Z,13.50
2019-05-12T04:51:49.249Z,13.50
2019-05-12T04:54:20.099Z,13.60
2019-05-12T04:56:50.769Z,13.78
2019-05-12T04:59:21.671Z,13.35
2019-05-12T05:01:54.085Z,13.03
2019-05-12T05:04:24.618Z,14.00
2019-05-12T05:06:55.621Z,13.28
2019-05-12T05:09:26.473Z,13.55
2019-05-12T05:11:57.079Z,13.05
2019-05-12T05:14:27.840Z,13.65
2019-05-12T05:16:58.663Z,13.50
2019-05-12T05:19:29.531Z,13.88
2019-05-12T05:22:00.321Z,14.15
2019-05-12T05:24:31.101Z,13.40
2019-05-12T05:27:04.264Z,12.78
2019-05-12T05:29:37.033Z,13.50
2019-05-12T05:32:06.531Z,13.53
2019-05-12T05:34:37.418Z,12.45
2019-05-12T05:37:08.200Z,12.85
2019-05-12T05:39:47.905Z,13.08
2019-05-12T05:42:13.439Z,13.03
2019-05-12T05:44:43.738Z,12.68
2019-05-12T05:47:14.979Z,13.10
2019-05-12T05:49:45.727Z,13.10
2019-05-12T05:52:16.679Z,12.75
2019-05-12T05:54:47.556Z,12.73
2019-05-12T05:57:20.025Z,12.90
2019-05-12T05:59:50.538Z,13.30
2019-05-12T06:02:23.151Z,12.47
2019-05-12T06:04:56.265Z,13.18
2019-05-12T06:07:34.851Z,13.10
2019-05-12T06:09:58.087Z,12.73
2019-05-12T06:12:28.971Z,11.88
2019-05-12T06:15:00.031Z,12.63
2019-05-12T06:17:30.942Z,12.80
2019-05-12T06:20:04.214Z,12.85
2019-05-12T06:22:34.297Z,13.03
2019-05-12T06:25:06.039Z,12.60
2019-05-12T06:27:36.917Z,13.05
2019-05-12T06:30:10.150Z,12.80
2019-05-12T06:32:45.915Z,15.38
2019-05-12T06:35:15.111Z,15.20
2019-05-12T06:37:57.317Z,13.72
2019-05-12T06:40:17.847Z,12.03
2019-05-12T06:42:53.216Z,12.58
2019-05-12T06:45:23.363Z,12.60
2019-05-12T06:47:55.935Z,12.93
2019-05-12T06:50:28.692Z,14.25
2019-05-12T06:52:57.737Z,13.25
2019-05-12T06:55:33.376Z,12.93
2019-05-12T06:58:00.954Z,12.33
2019-05-12T07:00:32.627Z,12.40
2019-05-12T07:03:04.236Z,12.60
2019-05-12T07:05:38.404Z,12.37
2019-05-12T07:08:08.383Z,16.60
2019-05-12T07:10:43.484Z,14.50
2019-05-12T07:13:14.746Z,12.93
2019-05-12T07:15:43.911Z,13.22
2019-05-12T07:18:17.796Z,13.03
2019-05-12T07:20:48.551Z,13.28
2019-05-12T07:23:19.536Z,11.75
2019-05-12T07:25:51.554Z,12.50
2019-05-12T07:28:23.723Z,13.83
2019-05-12T07:30:54.686Z,13.85
2019-05-12T07:33:25.623Z,13.53
2019-05-12T07:36:01.297Z,14.18
2019-05-12T07:38:30.896Z,14.38
2019-05-12T07:41:08.921Z,13.43
2019-05-12T07:43:35.159Z,13.25
2019-05-12T07:46:07.228Z,13.45
2019-05-12T07:48:40.345Z,14.05
2019-05-12T07:51:10.534Z,14.43
2019-05-12T07:53:46.818Z,13.90
2019-05-12T07:56:14.437Z,14.93
2019-05-12T07:58:47.508Z,13.95
2019-05-12T08:01:18.601Z,13.98
2019-05-12T08:03:50.906Z,14.03
2019-05-12T08:06:21.569Z,13.60
2019-05-12T08:08:56.581Z,13.20
2019-05-12T08:11:28.723Z,12.60
2019-05-12T08:13:57.039Z,11.63
2019-05-12T08:16:29.662Z,11.78
2019-05-12T08:19:00.094Z,12.25
2019-05-12T08:21:34.841Z,12.60
2019-05-12T08:24:03.783Z,11.57
2019-05-12T08:26:34.653Z,12.05
2019-05-12T08:29:10.490Z,11.73
2019-05-12T08:31:40.678Z,11.20
2019-05-12T08:34:10.088Z,12.10
2019-05-12T08:36:44.966Z,11.70
2019-05-12T08:39:21.292Z,11.48
2019-05-12T08:41:45.234Z,11.35
2019-05-12T08:44:17.649Z,12.05
2019-05-12T08:46:51.766Z,11.80
2019-05-12T08:49:20.396Z,12.03
2019-05-12T08:51:57.757Z,11.93
2019-05-12T08:54:45.419Z,11.20
2019-05-12T08:57:15.167Z,11.85
2019-05-12T08:59:45.825Z,11.20
2019-05-12T09:02:16.773Z,11.55
2019-05-12T09:04:51.397Z,12.45
2019-05-12T09:07:19.846Z,12.30
2019-05-12T09:09:53.215Z,12.23
2019-05-12T09:12:23.298Z,12.20
2019-05-12T09:14:54.625Z,12.33
2019-05-12T09:17:25.739Z,12.28
2019-05-12T09:20:06.064Z,10.88
2019-05-12T09:22:28.761Z,10.40
2019-05-12T09:25:06.341Z,11.48
2019-05-12T09:27:33.339Z,11.18
2019-05-12T09:30:08.015Z,11.38
2019-05-12T09:32:39.131Z,11.60
2019-05-12T09:35:09.452Z,10.60
2019-05-12T09:37:40.594Z,11.18
2019-05-12T09:40:11.600Z,10.90
2019-05-12T09:42:44.042Z,11.18
2019-05-12T09:45:14.795Z,11.55
2019-05-12T09:47:45.597Z,11.18
2019-05-12T09:50:20.326Z,11.45
2019-05-12T09:52:52.474Z,11.08
2019-05-12T09:55:22.793Z,12.18
2019-05-12T09:57:54.392Z,12.68
2019-05-12T10:00:30.490Z,12.03
2019-05-12T10:03:00.643Z,12.65
2019-05-12T10:05:30.577Z,12.50
2019-05-12T10:08:04.557Z,11.43
2019-05-12T10:10:40.126Z,11.68
2019-05-12T10:13:06.976Z,11.57
2019-05-12T10:15:37.961Z,11.95
2019-05-12T10:18:11.036Z,11.63
2019-05-12T10:20:41.052Z,11.35
2019-05-12T10:23:18.626Z,10.93
2019-05-12T10:25:44.702Z,11.12
2019-05-12T10:28:16.199Z,11.05
2019-05-12T10:30:52.513Z,11.40
2019-05-12T10:33:19.477Z,11.10
2019-05-12T10:35:50.289Z,11.03
2019-05-12T10:38:21.212Z,10.93
2019-05-12T10:40:52.033Z,11.30
2019-05-12T10:43:23.674Z,11.05
2019-05-12T10:45:54.587Z,11.57
2019-05-12T10:48:25.327Z,11.28
2019-05-12T10:50:56.149Z,11.10
2019-05-12T10:53:26.989Z,10.80
2019-05-12T10:55:57.773Z,11.48
2019-05-12T10:58:28.593Z,10.75
2019-05-12T11:01:05.404Z,11.70
2019-05-12T11:03:33.742Z,10.78
2019-05-12T11:06:07.393Z,10.53
2019-05-12T11:08:41.372Z,11.65
2019-05-12T11:11:09.206Z,11.65
2019-05-12T11:13:40.343Z,11.68
2019-05-12T11:16:14.655Z,11.35
2019-05-12T11:18:44.686Z,11.75
2019-05-12T11:21:15.660Z,11.10
2019-05-12T11:23:46.386Z,11.97
2019-05-12T11:26:17.560Z,11.40
2019-05-12T11:28:48.495Z,12.45
2019-05-12T11:31:19.295Z,13.28
2019-05-12T11:33:50.277Z,13.75
2019-05-12T11:36:21.279Z,14.60
2019-05-12T11:38:53.357Z,14.10
2019-05-12T11:41:28.245Z,14.95
2019-05-12T11:43:56.668Z,14.93
2019-05-12T11:46:27.648Z,15.88
2019-05-12T11:48:58.527Z,14.33
2019-05-12T11:51:30.665Z,16.87
2019-05-12T11:54:03.395Z,17.10
2019-05-12T11:56:34.039Z,17.27
2019-05-12T11:59:04.778Z,17.23
2019-05-12T12:01:39.570Z,17.00
2019-05-12T12:04:07.729Z,18.40
2019-05-12T12:06:38.594Z,18.73
2019-05-12T12:09:15.259Z,18.75
2019-05-12T12:11:43.327Z,18.65
2019-05-12T12:14:14.416Z,20.08
2019-05-12T12:16:49.928Z,19.57
2019-05-12T12:19:17.373Z,20.68
2019-05-12T12:21:50.055Z,20.43
2019-05-12T12:24:21.413Z,20.65
2019-05-12T12:26:53.732Z,20.48
2019-05-12T12:29:24.763Z,21.48
2019-05-12T12:31:56.754Z,24.52
2019-05-12T12:34:30.103Z,29.57
2019-05-12T12:36:59.933Z,31.33
2019-05-12T12:39:30.821Z,31.48
2019-05-12T12:42:01.635Z,32.13
2019-05-12T12:44:34.071Z,30.32
2019-05-12T12:47:04.801Z,33.30
2019-05-12T12:49:39.847Z,29.18
2019-05-12T12:52:07.791Z,26.52
2019-05-12T12:54:38.490Z,25.62
2019-05-12T12:57:10.068Z,25.08
2019-05-12T12:59:45.056Z,25.50
2019-05-12T13:02:14.232Z,25.92
2019-05-12T13:04:50.060Z,26.55
2019-05-12T13:07:17.404Z,33.50
2019-05-12T13:09:48.301Z,39.23
2019-05-12T13:12:19.704Z,40.88
2019-05-12T13:14:53.095Z,38.10
2019-05-12T13:17:29.041Z,36.80
2019-05-12T13:19:58.689Z,33.78
2019-05-12T13:22:29.549Z,31.90
2019-05-12T13:25:06.464Z,28.80
2019-05-12T13:27:36.348Z,26.37
2019-05-12T13:30:05.402Z,25.88
2019-05-12T13:32:37.954Z,25.82
2019-05-12T13:35:15.328Z,22.82
2019-05-12T13:37:43.268Z,23.60
2019-05-12T13:40:14.915Z,23.15
2019-05-12T13:42:45.643Z,22.80
2019-05-12T13:45:16.806Z,20.97
2019-05-12T13:47:47.848Z,21.70
2019-05-12T13:50:26.070Z,21.77
2019-05-12T13:52:51.185Z,22.15
2019-05-12T13:55:23.815Z,22.60
2019-05-12T13:57:57.762Z,25.32
2019-05-12T14:00:26.285Z,29.82
2019-05-12T14:03:03.547Z,28.77
2019-05-12T14:05:29.350Z,28.27
2019-05-12T14:08:00.201Z,24.95
2019-05-12T14:10:33.209Z,24.52
2019-05-12T14:13:03.523Z,25.65
2019-05-12T14:15:34.432Z,27.15
2019-05-12T14:18:05.149Z,25.72
2019-05-12T14:20:35.743Z,26.23
2019-05-12T14:23:06.638Z,25.72
2019-05-12T14:25:37.430Z,25.97
2019-05-12T14:28:09.600Z,26.57
2019-05-12T14:30:41.301Z,25.43
2019-05-12T14:33:12.854Z,26.02
2019-05-12T14:35:46.026Z,26.62
2019-05-12T14:38:19.294Z,25.77
2019-05-12T14:40:48.059Z,25.15
2019-05-12T14:43:21.258Z,25.02
2019-05-12T14:45:51.173Z,24.57
2019-05-12T14:48:22.167Z,25.30
2019-05-12T14:50:53.546Z,24.47
2019-05-12T14:53:24.481Z,24.80
2019-05-12T14:55:55.242Z,23.47
2019-05-12T14:58:26.801Z,24.20
2019-05-12T15:00:58.251Z,23.40
2019-05-12T15:03:29.343Z,24.02
2019-05-12T15:06:00.186Z,25.25
2019-05-12T15:08:36.295Z,23.55
2019-05-12T15:11:03.930Z,24.55
2019-05-12T15:13:34.914Z,22.70
2019-05-12T15:16:06.782Z,24.47
2019-05-12T15:18:39.611Z,23.32
2019-05-12T15:21:09.628Z,25.00
2019-05-12T15:23:40.696Z,27.37
2019-05-12T15:26:17.708Z,24.72
2019-05-12T15:28:43.951Z,25.08
2019-05-12T15:31:14.814Z,24.95
2019-05-12T15:33:45.603Z,24.67
2019-05-12T15:36:16.700Z,24.27
2019-05-12T15:38:49.149Z,26.20
2019-05-12T15:41:20.210Z,24.70
2019-05-12T15:43:52.918Z,26.75
2019-05-12T15:46:24.548Z,24.52
2019-05-12T15:48:55.514Z,24.27
2019-05-12T15:51:26.555Z,24.67
2019-05-12T15:54:05.345Z,23.83
2019-05-12T15:56:29.746Z,24.15
2019-05-12T15:59:02.621Z,23.73
2019-05-12T16:01:33.512Z,25.68
2019-05-12T16:04:04.454Z,23.83
2019-05-12T16:06:35.330Z,24.40
2019-05-12T16:09:07.645Z,25.77
2019-05-12T16:11:38.474Z,24.70
2019-05-12T16:14:09.477Z,26.68
2019-05-12T16:16:42.511Z,26.42
2019-05-12T16:19:14.531Z,25.43
2019-05-12T16:21:45.617Z,25.82
2019-05-12T16:24:16.696Z,25.92
2019-05-12T16:26:51.848Z,26.00
2019-05-12T16:29:19.762Z,26.10
2019-05-12T16:31:50.583Z,27.30
2019-05-12T16:34:21.248Z,25.90
2019-05-12T16:36:54.769Z,26.20
2019-05-12T16:39:24.460Z,26.68
2019-05-12T16:41:59.958Z,26.17
2019-05-12T16:44:27.696Z,26.37
2019-05-12T16:46:58.503Z,25.50
2019-05-12T16:49:33.221Z,27.77
2019-05-12T16:52:03.504Z,25.43
2019-05-12T16:54:33.694Z,26.85
2019-05-12T16:57:06.464Z,28.90
2019-05-12T16:59:36.916Z,28.20
2019-05-12T17:02:09.766Z,28.17
2019-05-12T17:04:40.251Z,27.05
2019-05-12T17:07:17.305Z,26.42
2019-05-12T17:09:43.887Z,27.27
2019-05-12T17:12:14.886Z,26.55
2019-05-12T17:14:49.910Z,26.20
2019-05-12T17:17:20.995Z,26.73
2019-05-12T17:19:49.697Z,26.82
2019-05-12T17:22:20.514Z,25.92
2019-05-12T17:24:53.698Z,25.40
2019-05-12T17:27:26.667Z,26.93
2019-05-12T17:29:55.730Z,26.48
2019-05-12T17:32:26.705Z,25.82
2019-05-12T17:34:57.473Z,27.37
2019-05-12T17:37:31.502Z,26.42
2019-05-12T17:40:00.625Z,26.52
2019-05-12T17:42:33.297Z,29.12
2019-05-12T17:45:03.927Z,28.38
2019-05-12T17:47:34.770Z,28.50
2019-05-12T17:50:10.297Z,29.35
2019-05-12T17:52:39.513Z,30.85
2019-05-12T17:55:10.998Z,32.60
2019-05-12T17:57:43.782Z,32.00
2019-05-12T18:00:16.023Z,32.70
2019-05-12T18:02:49.422Z,32.95
2019-05-12T18:05:20.160Z,32.70
2019-05-12T18:07:52.360Z,31.62
2019-05-12T18:10:23.890Z,32.53
2019-05-12T18:12:54.949Z,31.00
2019-05-12T18:15:32.262Z,31.27
2019-05-12T18:17:57.946Z,30.30
2019-05-12T18:20:31.177Z,29.37
2019-05-12T18:23:01.200Z,28.90
2019-05-12T18:25:32.374Z,31.02
2019-05-12T18:28:03.744Z,29.20
2019-05-12T18:30:34.871Z,28.65
2019-05-12T18:33:09.130Z,30.40
2019-05-12T18:35:37.890Z,29.30
2019-05-12T18:38:18.158Z,28.75
2019-05-12T18:40:41.021Z,27.70
2019-05-12T18:43:14.016Z,28.77
2019-05-12T18:45:48.665Z,28.07
2019-05-12T18:48:21.792Z,27.60
2019-05-12T18:50:49.005Z,28.70
2019-05-12T18:53:27.649Z,28.75
2019-05-12T18:55:53.936Z,29.23
2019-05-12T18:58:30.678Z,28.27
2019-05-12T19:00:56.329Z,28.15
2019-05-12T19:03:27.331Z,28.65
2019-05-12T19:05:58.336Z,27.27
2019-05-12T19:08:29.260Z,27.85
2019-05-12T19:11:13.999Z,27.07
2019-05-12T19:13:33.793Z,28.07
2019-05-12T19:16:07.021Z,27.32
2019-05-12T19:18:37.384Z,25.68
2019-05-12T19:21:10.107Z,26.27
2019-05-12T19:23:40.737Z,27.07
2019-05-12T19:26:13.412Z,26.82
2019-05-12T19:28:52.596Z,26.70
2019-05-12T19:31:16.319Z,27.10
2019-05-12T19:33:56.662Z,29.27
2019-05-12T19:36:19.330Z,30.62
2019-05-12T19:38:50.126Z,30.52
2019-05-12T19:41:20.947Z,29.55
2019-05-12T19:43:53.436Z,30.57
2019-05-12T19:46:24.302Z,31.17
2019-05-12T19:48:55.051Z,32.48
2019-05-12T19:51:28.338Z,32.20
2019-05-12T19:53:58.070Z,32.53
2019-05-12T19:56:34.486Z,31.50
2019-05-12T19:59:01.179Z,33.05
2019-05-12T20:01:34.123Z,33.67
2019-05-12T20:04:04.297Z,33.08
2019-05-12T20:06:34.959Z,30.60
2019-05-12T20:09:10.780Z,31.33
2019-05-12T20:11:39.536Z,33.18
2019-05-12T20:14:15.655Z,32.67
2019-05-12T20:16:43.939Z,32.80
2019-05-12T20:19:14.455Z,33.75
2019-05-12T20:21:45.298Z,32.53
2019-05-12T20:24:16.219Z,31.35
2019-05-12T20:26:47.101Z,31.77
2019-05-12T20:29:17.889Z,29.65
2019-05-12T20:31:48.850Z,28.45
2019-05-12T20:34:19.595Z,28.60
2019-05-12T20:36:50.517Z,28.80
2019-05-12T20:39:22.360Z,28.60
2019-05-12T20:41:54.471Z,27.05
2019-05-12T20:44:25.728Z,26.30
2019-05-12T20:47:01.358Z,25.62
2019-05-12T20:49:28.772Z,26.52
2019-05-12T20:52:03.635Z,25.95
2019-05-12T20:54:33.547Z,26.82
2019-05-12T20:57:08.046Z,25.57
2019-05-12T20:59:36.038Z,25.52
2019-05-12T21:02:06.882Z,25.17
2019-05-12T21:04:38.031Z,25.05
2019-05-12T21:07:13.996Z,25.25
2019-05-12T21:09:41.376Z,24.43
2019-05-12T21:12:13.665Z,24.70
2019-05-12T21:14:51.410Z,24.55
2019-05-12T21:17:18.498Z,25.05
2019-05-12T21:19:56.704Z,26.62
2019-05-12T21:22:23.455Z,27.45
2019-05-12T21:24:53.449Z,28.60
2019-05-12T21:27:24.981Z,28.98
2019-05-12T21:30:00.637Z,27.75
2019-05-12T21:32:28.160Z,28.15
2019-05-12T21:34:59.575Z,26.25
2019-05-12T21:37:30.679Z,27.17
2019-05-12T21:40:03.676Z,26.05
2019-05-12T21:42:33.927Z,26.15
2019-05-12T21:45:04.875Z,26.68
2019-05-12T21:47:42.860Z,25.48
2019-05-12T21:50:08.563Z,27.60
2019-05-12T21:52:39.422Z,26.60
2019-05-12T21:55:13.601Z,25.17
2019-05-12T21:57:43.743Z,23.65
2019-05-12T22:00:20.178Z,24.12
2019-05-12T22:02:53.413Z,23.60
2019-05-12T22:05:46.677Z,22.85
2019-05-12T22:07:55.744Z,22.98
2019-05-12T22:10:30.606Z,24.85
2019-05-12T22:13:00.461Z,24.02
2019-05-12T22:15:33.650Z,22.70
2019-05-12T22:18:04.791Z,22.85
2019-05-12T22:20:37.324Z,22.27
2019-05-12T22:23:11.958Z,22.35
2019-05-12T22:25:40.559Z,21.97
2019-05-12T22:28:13.295Z,22.25
